createdAt,value
2022-11-05T00:00:36.449Z,28.63
2022-11-05T00:03:39.893Z,31.43
2022-11-05T00:06:29.282Z,23.83
2022-11-05T00:09:14.752Z,26.77
2022-11-05T00:12:00.132Z,26.37
2022-11-05T00:14:45.699Z,25.50
2022-11-05T00:17:12.743Z,32.30
2022-11-05T00:19:39.803Z,26.33
2022-11-05T00:22:25.073Z,30.77
2022-11-05T00:25:10.521Z,28.13
2022-11-05T00:27:37.608Z,24.40
2022-11-05T00:30:07.281Z,31.07
2022-11-05T00:32:36.628Z,27.27
2022-11-05T00:35:05.244Z,28.93
2022-11-05T00:37:32.241Z,26.77
2022-11-05T00:39:59.409Z,27.70
2022-11-05T00:42:44.737Z,26.87
2022-11-05T00:45:11.937Z,25.80
2022-11-05T00:47:58.482Z,25.30
2022-11-05T00:50:25.771Z,27.10
2022-11-05T00:52:59.702Z,31.53
2022-11-05T00:55:38.595Z,27.83
2022-11-05T00:58:15.103Z,29.13
2022-11-05T01:00:53.351Z,29.10
2022-11-05T01:03:35.860Z,29.47
2022-11-05T01:06:10.993Z,30.40
2022-11-05T01:08:39.058Z,27.50
2022-11-05T01:11:34.327Z,28.30
2022-11-05T01:14:05.253Z,25.90
2022-11-05T01:16:32.699Z,30.33
2022-11-05T01:19:01.037Z,29.17
2022-11-05T01:21:28.202Z,26.53
2022-11-05T01:23:55.274Z,30.07
2022-11-05T01:26:22.783Z,28.80
2022-11-05T01:29:00.504Z,26.43
2022-11-05T01:31:28.681Z,28.37
2022-11-05T01:33:55.817Z,26.73
2022-11-05T01:36:22.880Z,28.27
2022-11-05T01:38:49.946Z,29.10
2022-11-05T01:41:16.974Z,30.67
2022-11-05T01:43:49.946Z,32.33
2022-11-05T01:46:27.675Z,54.77
2022-11-05T01:49:02.941Z,32.97
2022-11-05T01:51:31.082Z,37.37
2022-11-05T01:54:03.736Z,31.43
2022-11-05T01:56:40.954Z,34.40
2022-11-05T01:59:30.635Z,23.30
2022-11-05T02:01:58.618Z,25.07
2022-11-05T02:04:40.427Z,24.60
2022-11-05T02:07:09.378Z,27.90
2022-11-05T02:10:05.301Z,26.70
2022-11-05T02:12:33.676Z,27.63
2022-11-05T02:15:00.728Z,30.07
2022-11-05T02:17:40.145Z,28.17
2022-11-05T02:20:51.992Z,32.00
2022-11-05T02:23:54.478Z,30.60
2022-11-05T02:27:07.340Z,31.73
2022-11-05T02:29:58.604Z,27.43
2022-11-05T02:32:34.631Z,33.37
2022-11-05T02:35:15.382Z,27.73
2022-11-05T02:37:52.686Z,26.37
2022-11-05T02:40:27.032Z,25.63
2022-11-05T02:43:28.176Z,23.73
2022-11-05T02:47:12.901Z,22.73
2022-11-05T02:49:53.084Z,19.33
2022-11-05T02:52:41.836Z,24.13
2022-11-05T02:55:59.465Z,23.83
2022-11-05T02:58:30.623Z,21.43
2022-11-05T03:01:02.172Z,18.83
2022-11-05T03:03:51.420Z,19.40
2022-11-05T03:06:44.251Z,23.03
2022-11-05T03:09:39.248Z,20.40
2022-11-05T03:12:27.779Z,20.30
2022-11-05T03:15:25.472Z,19.43
2022-11-05T03:18:13.262Z,21.70
2022-11-05T03:21:03.337Z,22.13
2022-11-05T03:23:46.850Z,20.33
2022-11-05T03:26:27.969Z,27.30
2022-11-05T03:29:06.845Z,23.67
2022-11-05T03:31:36.528Z,25.93
2022-11-05T03:34:06.738Z,23.93
2022-11-05T03:36:41.252Z,25.70
2022-11-05T03:39:22.359Z,26.13
2022-11-05T03:41:52.437Z,37.17
2022-11-05T03:44:27.856Z,37.77
2022-11-05T03:47:02.769Z,35.80
2022-11-05T03:49:39.384Z,37.87
2022-11-05T03:52:22.672Z,36.33
2022-11-05T03:54:49.924Z,41.80
2022-11-05T03:57:23.850Z,38.20
2022-11-05T03:59:51.835Z,39.73
2022-11-05T04:02:22.792Z,34.97
2022-11-05T04:04:49.941Z,39.97
2022-11-05T04:07:35.750Z,38.70
2022-11-05T04:10:20.995Z,35.67
2022-11-05T04:13:07.196Z,33.73
2022-11-05T04:15:54.226Z,39.43
2022-11-05T04:18:21.849Z,34.10
2022-11-05T04:21:07.261Z,35.80
2022-11-05T04:23:53.137Z,44.90
2022-11-05T04:26:23.558Z,41.00
2022-11-05T04:29:10.458Z,36.63
2022-11-05T04:31:38.506Z,44.23
2022-11-05T04:34:06.095Z,36.03
2022-11-05T04:36:33.307Z,36.90
2022-11-05T04:39:00.425Z,39.93
2022-11-05T04:41:27.619Z,39.80
2022-11-05T04:43:55.034Z,35.33
2022-11-05T04:46:22.109Z,37.07
2022-11-05T04:48:49.172Z,38.63
2022-11-05T04:51:16.226Z,38.03
2022-11-05T04:53:43.338Z,38.00
2022-11-05T04:56:28.626Z,35.23
2022-11-05T04:58:55.675Z,36.50
2022-11-05T05:01:25.464Z,40.87
2022-11-05T05:03:54.467Z,38.63
2022-11-05T05:06:22.653Z,34.97
2022-11-05T05:08:51.839Z,42.80
2022-11-05T05:11:22.134Z,31.87
2022-11-05T05:13:50.159Z,38.90
2022-11-05T05:16:24.205Z,38.87
2022-11-05T05:18:52.142Z,34.60
2022-11-05T05:21:40.406Z,30.30
2022-11-05T05:24:15.506Z,35.57
2022-11-05T05:26:45.702Z,32.60
2022-11-05T05:29:14.067Z,34.53
2022-11-05T05:31:41.525Z,33.73
2022-11-05T05:34:12.876Z,30.50
2022-11-05T05:36:40.315Z,33.80
2022-11-05T05:39:11.201Z,30.47
2022-11-05T05:41:38.507Z,32.90
2022-11-05T05:44:06.573Z,35.73
2022-11-05T05:46:33.934Z,34.70
2022-11-05T05:49:01.039Z,33.57
2022-11-05T05:51:28.009Z,35.93
2022-11-05T05:53:55.257Z,32.00
2022-11-05T05:56:22.484Z,40.93
2022-11-05T05:58:49.594Z,33.27
2022-11-05T06:01:19.606Z,37.70
2022-11-05T06:03:48.740Z,32.60
2022-11-05T06:06:21.271Z,39.00
2022-11-05T06:08:49.091Z,33.00
2022-11-05T06:11:16.488Z,33.00
2022-11-05T06:13:43.549Z,38.53
2022-11-05T06:16:11.193Z,34.00
2022-11-05T06:18:38.599Z,41.40
2022-11-05T06:21:10.071Z,33.63
2022-11-05T06:23:39.756Z,31.00
2022-11-05T06:26:14.053Z,42.80
2022-11-05T06:28:42.147Z,39.07
2022-11-05T06:31:14.335Z,41.80
2022-11-05T06:33:41.485Z,29.47
2022-11-05T06:36:14.498Z,40.67
2022-11-05T06:38:41.668Z,30.87
2022-11-05T06:41:10.567Z,32.67
2022-11-05T06:43:38.668Z,30.80
2022-11-05T06:46:06.129Z,27.50
2022-11-05T06:48:33.544Z,51.37
2022-11-05T06:51:00.575Z,32.40
2022-11-05T06:53:27.797Z,36.37
2022-11-05T06:55:55.059Z,32.87
2022-11-05T06:58:22.320Z,40.37
2022-11-05T07:00:50.156Z,37.47
2022-11-05T07:03:17.243Z,32.13
2022-11-05T07:05:48.497Z,34.03
2022-11-05T07:08:16.081Z,36.23
2022-11-05T07:10:43.433Z,33.23
2022-11-05T07:13:11.040Z,31.00
2022-11-05T07:15:38.583Z,29.17
2022-11-05T07:18:07.493Z,31.80
2022-11-05T07:20:35.315Z,31.73
2022-11-05T07:23:10.207Z,33.57
2022-11-05T07:25:37.840Z,34.20
2022-11-05T07:28:05.284Z,37.60
2022-11-05T07:30:34.536Z,30.33
2022-11-05T07:33:01.978Z,32.80
2022-11-05T07:35:29.154Z,40.33
2022-11-05T07:37:56.416Z,33.67
2022-11-05T07:40:27.632Z,36.53
2022-11-05T07:42:59.235Z,24.47
2022-11-05T07:45:29.154Z,30.33
2022-11-05T07:47:59.526Z,30.80
2022-11-05T07:50:31.412Z,33.43
2022-11-05T07:53:14.435Z,35.13
2022-11-05T07:55:42.329Z,31.23
2022-11-05T07:58:10.935Z,31.67
2022-11-05T08:00:38.438Z,22.30
2022-11-05T08:03:10.512Z,26.27
2022-11-05T08:05:40.977Z,32.10
2022-11-05T08:08:12.955Z,28.97
2022-11-05T08:10:40.790Z,22.83
2022-11-05T08:13:09.056Z,21.60
2022-11-05T08:15:36.752Z,22.20
2022-11-05T08:18:13.932Z,29.43
2022-11-05T08:20:42.953Z,35.13
2022-11-05T08:23:10.993Z,25.80
2022-11-05T08:25:38.369Z,22.07
2022-11-05T08:28:12.903Z,24.00
2022-11-05T08:30:40.700Z,25.90
2022-11-05T08:33:14.335Z,26.07
2022-11-05T08:35:42.241Z,21.97
2022-11-05T08:38:16.199Z,32.87
2022-11-05T08:40:45.364Z,31.37
2022-11-05T08:43:14.891Z,23.87
2022-11-05T08:45:42.484Z,33.97
2022-11-05T08:48:15.076Z,24.70
2022-11-05T08:50:43.149Z,24.23
2022-11-05T08:53:11.344Z,28.03
2022-11-05T08:55:39.160Z,34.00
2022-11-05T08:58:12.631Z,31.77
2022-11-05T09:00:40.224Z,32.83
2022-11-05T09:03:09.284Z,19.90
2022-11-05T09:05:39.680Z,23.53
2022-11-05T09:08:18.828Z,19.00
2022-11-05T09:10:47.891Z,26.43
2022-11-05T09:13:19.504Z,20.40
2022-11-05T09:15:49.262Z,30.03
2022-11-05T09:18:17.755Z,24.73
2022-11-05T09:20:45.336Z,20.63
2022-11-05T09:23:14.982Z,17.03
2022-11-05T09:25:42.587Z,22.60
2022-11-05T09:28:21.336Z,25.73
2022-11-05T09:30:51.052Z,27.70
2022-11-05T09:33:24.703Z,20.40
2022-11-05T09:35:53.653Z,33.23
2022-11-05T09:38:20.885Z,16.13
2022-11-05T09:41:08.889Z,21.80
2022-11-05T09:43:50.890Z,24.03
2022-11-05T09:46:26.004Z,27.27
2022-11-05T09:49:02.254Z,18.57
2022-11-05T09:51:29.798Z,13.10
2022-11-05T09:53:59.583Z,20.80
2022-11-05T09:56:37.463Z,18.70
2022-11-05T09:59:18.361Z,22.57
2022-11-05T10:01:46.952Z,19.30
2022-11-05T10:04:20.197Z,17.83
2022-11-05T10:06:55.809Z,21.30
2022-11-05T10:09:47.912Z,15.30
2022-11-05T10:12:35.557Z,14.27
2022-11-05T10:15:21.895Z,17.23
2022-11-05T10:17:56.667Z,17.37
2022-11-05T10:20:38.870Z,27.70
2022-11-05T10:23:15.587Z,12.53
2022-11-05T10:26:06.744Z,13.63
2022-11-05T10:28:36.544Z,15.60
2022-11-05T10:31:11.122Z,13.90
2022-11-05T10:33:46.634Z,18.50
2022-11-05T10:36:32.039Z,15.60
2022-11-05T10:39:10.371Z,10.10
2022-11-05T10:42:24.204Z,9.50
2022-11-05T10:45:15.828Z,7.30
2022-11-05T10:47:52.540Z,9.77
2022-11-05T10:50:27.589Z,11.10
2022-11-05T10:53:03.079Z,12.60
2022-11-05T10:55:38.047Z,8.37
2022-11-05T10:58:34.791Z,7.97
2022-11-05T11:01:07.433Z,6.37
2022-11-05T11:03:40.701Z,13.90
2022-11-05T11:06:32.564Z,9.77
2022-11-05T11:09:03.845Z,7.37
2022-11-05T11:11:42.237Z,13.10
2022-11-05T11:14:12.845Z,7.80
2022-11-05T11:16:45.090Z,9.90
2022-11-05T11:19:25.671Z,5.97
2022-11-05T11:22:04.964Z,14.03
2022-11-05T11:24:41.176Z,11.80
2022-11-05T11:27:34.877Z,15.93
2022-11-05T11:30:04.900Z,9.83
2022-11-05T11:32:39.260Z,12.10
2022-11-05T11:35:17.990Z,12.83
2022-11-05T11:37:45.744Z,15.37
2022-11-05T11:40:30.769Z,12.17
2022-11-05T11:43:16.460Z,10.07
2022-11-05T11:45:52.218Z,13.53
2022-11-05T11:48:28.147Z,8.77
2022-11-05T11:50:56.367Z,16.63
2022-11-05T11:53:35.340Z,9.80
2022-11-05T11:56:17.910Z,11.47
2022-11-05T11:58:54.994Z,11.03
2022-11-05T12:02:02.212Z,20.80
2022-11-05T12:05:01.795Z,17.13
2022-11-05T12:07:50.991Z,13.70
2022-11-05T12:10:33.202Z,9.47
2022-11-05T12:13:18.693Z,8.17
2022-11-05T12:15:57.353Z,12.60
2022-11-05T12:18:48.965Z,10.87
2022-11-05T12:21:52.196Z,9.73
2022-11-05T12:24:38.365Z,9.43
2022-11-05T12:28:05.486Z,9.07
2022-11-05T12:30:43.738Z,8.90
2022-11-05T12:34:04.770Z,10.40
2022-11-05T12:36:44.739Z,8.57
2022-11-05T12:39:43.815Z,11.40
2022-11-05T12:42:54.342Z,14.40
2022-11-05T12:45:56.071Z,13.10
2022-11-05T12:48:56.573Z,12.00
2022-11-05T12:52:03.413Z,7.93
2022-11-05T12:55:04.821Z,8.60
2022-11-05T12:57:37.342Z,12.90
2022-11-05T13:00:21.996Z,6.47
2022-11-05T13:03:19.301Z,7.80
2022-11-05T13:06:12.618Z,11.07
2022-11-05T13:09:15.548Z,7.77
2022-11-05T13:11:49.770Z,5.00
2022-11-05T13:14:38.142Z,13.33
2022-11-05T13:17:22.770Z,7.23
2022-11-05T13:20:17.555Z,10.83
2022-11-05T13:23:14.240Z,6.10
2022-11-05T13:25:49.750Z,8.13
2022-11-05T13:28:35.105Z,16.13
2022-11-05T13:31:08.261Z,7.20
2022-11-05T13:33:40.479Z,10.50
2022-11-05T13:36:49.725Z,8.50
2022-11-05T13:39:35.947Z,10.40
2022-11-05T13:42:11.891Z,7.60
2022-11-05T13:45:19.912Z,13.70
2022-11-05T13:47:53.107Z,9.73
2022-11-05T13:50:50.258Z,9.90
2022-11-05T13:53:48.140Z,8.23
2022-11-05T13:56:44.029Z,7.10
2022-11-05T13:59:38.519Z,6.10
2022-11-05T14:02:17.894Z,12.30
2022-11-05T14:05:00.962Z,12.10
2022-11-05T14:07:33.372Z,14.13
2022-11-05T14:10:39.825Z,10.23
2022-11-05T14:13:31.667Z,6.73
2022-11-05T14:16:10.802Z,10.43
2022-11-05T14:18:49.916Z,7.20
2022-11-05T14:21:26.346Z,11.20
2022-11-05T14:24:17.384Z,8.00
2022-11-05T14:26:44.560Z,10.53
2022-11-05T14:29:22.986Z,9.27
2022-11-05T14:32:09.676Z,12.73
2022-11-05T14:34:49.212Z,18.47
2022-11-05T14:37:34.389Z,11.27
2022-11-05T14:40:42.444Z,6.90
2022-11-05T14:43:24.303Z,10.60
2022-11-05T14:46:00.830Z,10.77
2022-11-05T14:48:44.124Z,9.87
2022-11-05T14:51:42.641Z,8.33
2022-11-05T14:54:45.373Z,6.13
2022-11-05T14:57:42.464Z,6.43
2022-11-05T15:00:28.418Z,5.23
2022-11-05T15:03:34.334Z,8.77
2022-11-05T15:06:31.336Z,6.70
2022-11-05T15:09:16.231Z,12.40
2022-11-05T15:11:56.559Z,4.40
2022-11-05T15:14:34.963Z,15.83
2022-11-05T15:17:47.916Z,6.47
2022-11-05T15:20:27.425Z,6.17
2022-11-05T15:23:00.313Z,11.63
2022-11-05T15:25:52.749Z,5.00
2022-11-05T15:28:37.021Z,10.97
2022-11-05T15:31:17.591Z,10.97
2022-11-05T15:33:47.739Z,7.50
2022-11-05T15:36:29.291Z,5.43
2022-11-05T15:39:23.325Z,17.93
2022-11-05T15:41:46.799Z,12.63
2022-11-05T15:44:34.712Z,16.00
2022-11-05T15:47:24.471Z,8.90
2022-11-05T15:50:15.719Z,7.80
2022-11-05T15:52:52.839Z,9.73
2022-11-05T15:55:23.709Z,13.50
2022-11-05T15:58:06.804Z,14.20
2022-11-05T16:00:36.539Z,10.57
2022-11-05T16:03:18.238Z,10.60
2022-11-05T16:05:48.453Z,12.93
2022-11-05T16:08:21.216Z,11.23
2022-11-05T16:10:52.204Z,19.20
2022-11-05T16:13:39.722Z,14.50
2022-11-05T16:16:16.078Z,11.80
2022-11-05T16:18:45.156Z,15.30
2022-11-05T16:21:23.282Z,10.50
2022-11-05T16:23:55.058Z,20.77
2022-11-05T16:29:38.123Z,12.03
2022-11-05T16:32:25.298Z,14.53
2022-11-05T16:35:06.876Z,17.03
2022-11-05T16:37:46.401Z,19.23
2022-11-05T16:40:25.770Z,13.27
2022-11-05T16:42:55.213Z,14.57
2022-11-05T16:45:25.095Z,16.57
2022-11-05T16:47:52.851Z,11.93
2022-11-05T16:50:29.847Z,12.10
2022-11-05T16:52:57.061Z,20.67
2022-11-05T16:55:24.256Z,16.70
2022-11-05T16:57:55.942Z,14.57
2022-11-05T17:00:24.750Z,23.10
2022-11-05T17:02:52.959Z,20.80
2022-11-05T17:05:31.258Z,13.90
2022-11-05T17:07:59.011Z,11.57
2022-11-05T17:10:26.685Z,14.33
2022-11-05T17:12:54.342Z,12.90
2022-11-05T17:15:29.293Z,12.70
2022-11-05T17:17:56.945Z,14.43
2022-11-05T17:20:45.381Z,21.30
2022-11-05T17:23:16.437Z,16.60
2022-11-05T17:25:47.897Z,19.43
2022-11-05T17:28:16.468Z,26.10
2022-11-05T17:30:51.700Z,16.50
2022-11-05T17:33:20.856Z,16.97
2022-11-05T17:35:48.103Z,20.70
2022-11-05T17:38:15.533Z,10.70
2022-11-05T17:40:42.892Z,15.37
2022-11-05T17:43:11.026Z,9.97
2022-11-05T17:45:50.466Z,15.67
2022-11-05T17:48:19.384Z,15.97
2022-11-05T17:50:49.245Z,14.87
2022-11-05T17:53:19.195Z,18.73
2022-11-05T17:55:47.346Z,17.40
2022-11-05T17:58:14.988Z,18.70
2022-11-05T18:00:44.178Z,20.70
2022-11-05T18:03:12.663Z,15.37
2022-11-05T18:05:41.038Z,18.50
2022-11-05T18:08:09.061Z,17.70
2022-11-05T18:10:41.024Z,17.20
2022-11-05T18:13:08.113Z,13.63
2022-11-05T18:15:38.057Z,13.50
2022-11-05T18:18:05.177Z,19.97
2022-11-05T18:20:32.578Z,18.30
2022-11-05T18:22:59.733Z,18.90
2022-11-05T18:25:27.147Z,16.40
2022-11-05T18:27:54.251Z,21.70
2022-11-05T18:30:21.359Z,15.80
2022-11-05T18:32:48.445Z,14.83
2022-11-05T18:35:15.497Z,14.90
2022-11-05T18:37:42.803Z,14.40
2022-11-05T18:40:12.733Z,13.23
2022-11-05T18:42:40.275Z,10.93
2022-11-05T18:45:09.734Z,18.87
2022-11-05T18:47:37.232Z,18.27
2022-11-05T18:50:06.212Z,11.13
2022-11-05T18:52:33.502Z,14.70
2022-11-05T18:55:00.626Z,20.73
2022-11-05T18:57:28.332Z,20.60
2022-11-05T18:59:55.456Z,22.80
2022-11-05T19:02:22.689Z,17.67
2022-11-05T19:05:13.853Z,23.33
2022-11-05T19:07:40.430Z,17.33
2022-11-05T19:10:08.525Z,25.10
2022-11-05T19:12:35.782Z,20.63
2022-11-05T19:15:03.497Z,21.37
2022-11-05T19:17:33.194Z,19.13
2022-11-05T19:20:01.047Z,22.60
2022-11-05T19:22:28.425Z,23.67
2022-11-05T19:24:55.619Z,20.47
2022-11-05T19:27:23.333Z,20.60
2022-11-05T19:29:50.801Z,21.70
2022-11-05T19:32:18.023Z,19.47
2022-11-05T19:34:45.201Z,30.53
2022-11-05T19:37:12.667Z,21.20
2022-11-05T19:39:41.201Z,23.87
2022-11-05T19:42:08.404Z,24.47
2022-11-05T19:44:38.949Z,21.67
2022-11-05T19:47:06.210Z,21.43
2022-11-05T19:49:33.390Z,20.87
2022-11-05T19:52:00.523Z,24.17
2022-11-05T19:54:27.664Z,33.80
2022-11-05T19:56:54.766Z,21.30
2022-11-05T19:59:21.902Z,22.30
2022-11-05T20:01:49.156Z,24.10
2022-11-05T20:04:16.461Z,17.90
2022-11-05T20:06:43.515Z,19.40
2022-11-05T20:09:22.625Z,26.47
2022-11-05T20:11:54.384Z,29.93
2022-11-05T20:14:22.950Z,22.90
2022-11-05T20:16:50.754Z,24.43
2022-11-05T20:19:20.899Z,26.43
2022-11-05T20:21:48.671Z,18.33
2022-11-05T20:24:24.245Z,28.77
2022-11-05T20:26:54.011Z,31.03
2022-11-05T20:29:21.589Z,26.67
2022-11-05T20:31:49.345Z,22.17
2022-11-05T20:34:16.466Z,29.67
2022-11-05T20:36:43.510Z,29.53
2022-11-05T20:39:12.155Z,29.30
2022-11-05T20:41:39.292Z,28.70
2022-11-05T20:44:06.405Z,22.10
2022-11-05T20:46:33.522Z,21.20
2022-11-05T20:49:00.626Z,20.03
2022-11-05T20:51:27.804Z,21.40
2022-11-05T20:53:57.492Z,24.70
2022-11-05T20:56:29.576Z,21.03
2022-11-05T20:58:59.093Z,26.77
2022-11-05T21:01:30.325Z,23.87
2022-11-05T21:03:58.326Z,29.87
2022-11-05T21:06:25.950Z,24.93
2022-11-05T21:08:53.928Z,28.00
2022-11-05T21:11:21.130Z,25.37
2022-11-05T21:13:48.913Z,26.97
2022-11-05T21:16:18.891Z,20.03
2022-11-05T21:18:46.882Z,25.03
2022-11-05T21:21:18.640Z,27.17
2022-11-05T21:23:45.928Z,32.63
2022-11-05T21:26:14.620Z,34.87
2022-11-05T21:28:42.653Z,28.70
2022-11-05T21:31:10.330Z,27.20
2022-11-05T21:33:38.088Z,34.00
2022-11-05T21:36:13.203Z,24.87
2022-11-05T21:38:41.259Z,26.13
2022-11-05T21:41:10.563Z,28.23
2022-11-05T21:43:39.481Z,26.60
2022-11-05T21:46:06.672Z,28.73
2022-11-05T21:48:34.075Z,27.07
2022-11-05T21:51:20.135Z,25.00
2022-11-05T21:54:06.175Z,33.17
2022-11-05T21:56:52.188Z,37.97
2022-11-05T21:59:41.269Z,27.03
2022-11-05T22:02:11.353Z,31.67
2022-11-05T22:04:44.816Z,36.40
2022-11-05T22:07:16.490Z,32.57
2022-11-05T22:09:44.207Z,28.37
2022-11-05T22:12:11.466Z,22.83
2022-11-05T22:14:38.950Z,24.37
2022-11-05T22:17:07.239Z,30.50
2022-11-05T22:19:35.036Z,30.23
2022-11-05T22:22:03.240Z,36.63
2022-11-05T22:24:31.868Z,24.10
2022-11-05T22:27:01.399Z,27.60
2022-11-05T22:29:29.051Z,22.77
2022-11-05T22:31:57.187Z,26.03
2022-11-05T22:34:25.644Z,33.60
2022-11-05T22:36:53.184Z,25.93
2022-11-05T22:39:21.080Z,24.40
2022-11-05T22:41:48.625Z,21.83
2022-11-05T22:44:17.227Z,29.93
2022-11-05T22:46:44.417Z,26.37
2022-11-05T22:49:11.805Z,27.50
2022-11-05T22:51:39.467Z,26.50
2022-11-05T22:54:07.527Z,24.43
2022-11-05T22:56:39.255Z,25.60
2022-11-05T22:59:08.864Z,23.33
2022-11-05T23:01:36.239Z,27.53
2022-11-05T23:04:03.653Z,24.27
2022-11-05T23:06:51.687Z,23.47
2022-11-05T23:09:42.453Z,22.57
2022-11-05T23:12:34.160Z,22.73
2022-11-05T23:15:05.784Z,25.03
2022-11-05T23:17:51.764Z,23.00
2022-11-05T23:20:40.385Z,26.23
2022-11-05T23:23:31.579Z,20.80
2022-11-05T23:26:21.953Z,21.23
2022-11-05T23:28:49.014Z,25.37
2022-11-05T23:31:34.967Z,19.73
2022-11-05T23:34:02.036Z,22.67
2022-11-05T23:36:47.576Z,23.93
2022-11-05T23:39:14.794Z,23.87
2022-11-05T23:42:00.798Z,18.17
2022-11-05T23:44:46.121Z,21.10
2022-11-05T23:47:32.328Z,21.90
2022-11-05T23:49:59.480Z,20.43
2022-11-05T23:52:26.638Z,20.10
2022-11-05T23:54:53.693Z,20.70
2022-11-05T23:57:20.788Z,17.40
2022-11-05T23:59:47.955Z,18.17
